Norwich, VT (05055)

6:40 PM EST on November 26, 2014 (GMT -0500)
Montshire Museum | Change Station
CLOSE
Current Station
Personal Weather Station
Location: Norwich, VT
Elevation: 436 ft
Nearby Weather Stations
Active Advisory: Winter Storm Warning Active Notice: Public Information Statement

Elev 436 ft 43.70 °N, 72.31 °W | Updated 17 seconds ago

Snow
Snow
30.8 °F
Feels Like 31 °F
N
0.0
Wind Variable Wind from NNE
Gusts 0.0 mph

Today
High -- | Low -- °F
--% Chance of Precip.
Yesterday
High -- | Low -- °F
Precip. -- in
6:57 AM 4:15 PM
Waxing Crescent, 23% visible
Pressure 29.97 in
Visibility 0.8 miles
Clouds Overcast 100 ft
Windchill 31 °F
Dew Point 31 °F
Humidity 98%
Rainfall 0.00 in
Snow Depth Not available.
UV 0 out of 12
Pollen .10 out of 12
Air Quality Not available.
Flu Activity Not available.
SPECI KLEB 262330Z 35005KT 3/4SM -SN BR OVC001 00/M01 A2997 RMK AO2 P0008 T00001011

More Conditions Fewer Conditions

Pressure 29.97 in
Visibility 0.8 miles
Clouds Overcast 100 ft
Windchill 31 °F
Dew Point 31 °F
Humidity 98%
Rainfall 0.00 in
Snow Depth Not available.
UV 0 out of 12
Pollen .10 out of 12
Air Quality Not available.
Flu Activity Not available.
SPECI KLEB 262330Z 35005KT 3/4SM -SN BR OVC001 00/M01 A2997 RMK AO2 P0008 T00001011

More Conditions Fewer Conditions

10-Day Weather Forecast

Almanac

Astronomy

Nov. 26, 2014 Rise Set
Actual Time
Civil Twilight
Nautical Twilight
Astronomical Twilight
Moon
Length of Visible Light
Length of Day
Tomorrow will be .
, % of the Moon is Illuminated

Today's Extremes

State Highs State Lows

Community

WunderPhotos

Upload Photos

1,773,921 photos uploaded!

WunderBlogs® & News

Nearby

Air Quality

  Air Quality AQ Index Pollutant
Not available.

Snow Depth

Station Depth Elevation

Earthquake Activity

City Distance Mag. Time & Date
Minimum magnitude displayed is 2.5.

Coastal Water Temperatures

Place Temperature

Nearby Weather Stations